Home PIREPS Pireps

Flight WIN1004

  • Submitted By: Vincent Fourni
  • Departure Airport: Bruxelles National (EBBR)
  • Arrival Airport: airport Innsbruck (LOWI)
  • Aircraft: YOUR CHOICE (YC)
  • Flight Time: 01.24
  • Date Submitted: 22/12/2017
  • Status: Accepted
Flight Details
Gross Revenue:
(25 load / € 0.00 per unit
€ 0.00
Fuel Cost:
(3762 fuel used @ 5.1 / unit)
€ 19,186.20

Additional Log Information:

View Log

Aircraft Used in flight is PMDG 737-800NGX Brussels Airlines Winglets
21:36 Brakes are On
21:39 Brakes are Released
21:41 Brakes are On
21:42 Brakes are Released
21:47 You Took off @ 168 Knots and Flaps at Position 3
Departure Weather
EBBR 222020Z 26004KT 3500 BR BKN013 09/08 Q1037 TEMPO 1200 -DZ BR BKN003rn
21:47 Landing Gear Up @ 175 Knots and 390 Feet
21:51 Above FL100 you need to switch of the landing lights
22:49 Landing Gear Down @ 192 Knots and 9450 Feet
22:58 You Landed @ 116 Knots and with -550 Vertical Speed
Arrival Weather
LOWI 222120Z 28002KT 2000 R08/P1500D R26/P1500U -RA BR FEW002 BKN004 01/01 Q1035 R08/19//95 NOSIGrn
22:58 Your Landing was very hard
22:58 Paused
23:04 Unpaused
23:04 Brakes are On
23:07 Brussels Bel-Track1.0.1.2

Route Map

Corporate About Us Our Team Vacancies Information Fleet Route Network Rules and Regulations Operations Flight Schedules Event Center Tours Partners IVAO Vatsim Acars dev FSCB

fb Users Online No pilots online!
0 Pilot(s) and 153 Guest(s) Online
CMS by phpVMS - Design by Crazycreatives.com - Copyright © 2020 - Brussels Airlines Virtual